Ship Status Report: callsign BAREU72

sailwx.info

Track history (hours):
 
Tides and Currents Weather Stations Pressure Air Temp Water Temp Dewpoint Dewpoint Depression Visibility Wind Speed Wind Dir Waves Ship Positions

Callsign BAREU72 (name unknown)

Last reported at 2017-Sep-27 12:00 UTC. Time now 2017-Nov-20 06:09 UTC.
Position N 36°18' E 022°24'.
Warning: this ship's position is 53 days out of date.

Date/timePositionNaut miles runAvg speedWind from/ knotsBaromVisibWave heightAir tempDewpointWater temp
2017-Sep-27 12:00N 36°18' E 022°24'1514.5
2017-Sep-27 11:00N 36°18' E 022°06'1514.5
2017-Sep-27 10:00N 36°18' E 021°48'1514.5
2017-Sep-27 09:00N 36°18' E 021°30'10 9.7
2017-Sep-27 08:00N 36°18' E 021°18'1514.5
2017-Sep-27 07:00N 36°18' E 021°00'1514.5
2017-Sep-27 06:00N 36°18' E 020°42'1514.5
2017-Sep-27 05:00N 36°18' E 020°24'1514.5
2017-Sep-27 04:00N 36°18' E 020°06'10 9.7
2017-Sep-27 03:00N 36°18' E 019°54'1514.5
2017-Sep-27 02:00N 36°18' E 019°36'1514.5
2017-Sep-27 01:00N 36°18' E 019°18'1514.5
2017-Sep-27 00:00N 36°18' E 019°00'1514.5
2017-Sep-26 23:00N 36°18' E 018°42'10 9.7
2017-Sep-26 22:00N 36°18' E 018°30'1514.5
2017-Sep-26 21:00N 36°18' E 018°12'1514.5
2017-Sep-26 20:00N 36°18' E 017°54'1514.5
2017-Sep-26 19:00N 36°18' E 017°36'1514.5
2017-Sep-26 18:00N 36°18' E 017°18'10 9.7
2017-Sep-26 17:00N 36°18' E 017°06'1514.5
2017-Sep-26 16:00N 36°18' E 016°48'1514.5
2017-Sep-26 15:00N 36°18' E 016°30'1514.5
2017-Sep-26 14:00N 36°18' E 016°12'10 9.7
2017-Sep-26 13:00N 36°18' E 016°00'1514.5
2017-Sep-26 12:00N 36°18' E 015°42'1514.5
2017-Sep-26 11:00N 36°18' E 015°24'10 9.7
2017-Sep-26 10:00N 36°18' E 015°12'1514.5
2017-Sep-26 09:00N 36°18' E 014°54'1514.5
2017-Sep-26 08:00N 36°18' E 014°36'1615.7
2017-Sep-26 07:00N 36°12' E 014°18'10 9.7
2017-Sep-26 06:00N 36°12' E 014°06'1514.5
2017-Sep-26 05:00N 36°12' E 013°48'1514.5
2017-Sep-26 04:00N 36°12' E 013°30'1615.7
2017-Sep-26 03:00N 36°06' E 013°12'10 9.7
2017-Sep-26 02:00N 36°06' E 013°00'1514.5
2017-Sep-26 01:00N 36°06' E 012°42'1615.7
2017-Sep-26 00:00N 36°00' E 012°24'1514.6
2017-Sep-25 23:00N 36°00' E 012°06'1514.6
2017-Sep-25 22:00N 36°00' E 011°48'1514.6
2017-Sep-25 21:00N 36°00' E 011°30'1111.4
2017-Sep-25 20:00N 35°54' E 011°18'1514.6
2017-Sep-25 19:00N 35°54' E 011°00'1615.8
2017-Sep-25 18:00N 35°48' E 010°42'0 0.0
2017-Sep-25 17:00N 35°48' E 010°42'0 0.0
2017-Sep-25 00:00N 35°48' E 010°42'0 0.0
2017-Sep-24 00:00N 35°48' E 010°42'0 0.0
2017-Sep-23 18:00N 35°48' E 010°42'0 0.0
2017-Sep-23 17:00N 35°48' E 010°42'8 1.0
2017-Sep-23 09:00N 35°54' E 010°48'1312.9
2017-Sep-23 08:00N 36°06' E 010°54'1515.4
2017-Sep-23 07:00N 36°18' E 011°06'8 7.7
2017-Sep-23 06:00N 36°24' E 011°12'1312.9
2017-Sep-23 05:00N 36°36' E 011°18'1312.9
2017-Sep-23 04:00N 36°48' E 011°24'1212.0
2017-Sep-23 03:00N 37°00' E 011°24'1212.0
2017-Sep-23 02:00N 37°12' E 011°24'1111.3
2017-Sep-23 01:00N 37°18' E 011°12'1111.3
2017-Sep-23 00:00N 37°24' E 011°00'1515.5
2017-Sep-22 23:00N 37°30' E 010°42'10 9.5
2017-Sep-22 22:00N 37°30' E 010°30'1414.3
2017-Sep-22 21:00N 37°30' E 010°12'1111.3
2017-Sep-22 20:00N 37°24' E 010°00'8 0.4
2017-Sep-21 23:00N 37°18' E 009°54'0 0.0
2017-Sep-21 14:00N 37°18' E 009°54'0 0.0
2017-Sep-21 05:00N 37°18' E 009°54'5 2.4
2017-Sep-21 03:00N 37°18' E 010°00'0 0.0
2017-Sep-21 02:00N 37°18' E 010°00'0 0.0
2017-Sep-21 01:00N 37°18' E 010°00'0 0.0
2017-Sep-21 00:00N 37°18' E 010°00'0 0.0
2017-Sep-20 23:00N 37°18' E 010°00'8 3.8
2017-Sep-20 21:00N 37°24' E 009°54'1414.3
2017-Sep-20 20:00N 37°24' E 009°36'1615.5
2017-Sep-20 19:00N 37°18' E 009°18'1414.3
2017-Sep-20 18:00N 37°18' E 009°00'1111.3
2017-Sep-20 17:00N 37°12' E 008°48'1615.6
2017-Sep-20 16:00N 37°06' E 008°30'1111.3
2017-Sep-20 15:00N 37°00' E 008°18'1414.4
2017-Sep-20 14:00N 37°00' E 008°00'1111.3
2017-Sep-20 13:00N 36°54' E 007°48'0 0.0
2017-Sep-20 12:00N 36°54' E 007°48'0 0.0
2017-Sep-20 08:00N 36°54' E 007°48'0 0.0
2017-Sep-19 23:00N 36°54' E 007°48'5 0.2
2017-Sep-18 20:00N 36°54' E 007°54'1111.3
2017-Sep-18 19:00N 37°00' E 008°06'1615.6
2017-Sep-18 18:00N 37°06' E 008°24'1111.3
2017-Sep-18 17:00N 37°12' E 008°36'1615.5
2017-Sep-18 16:00N 37°18' E 008°54'1111.3
2017-Sep-18 15:00N 37°24' E 009°06'1414.3
2017-Sep-18 14:00N 37°24' E 009°24'1515.5
2017-Sep-18 13:00N 37°30' E 009°42'1111.2
2017-Sep-18 12:00N 37°36' E 009°54'1414.3
2017-Sep-18 11:00N 37°36' E 010°12'10 9.5
2017-Sep-18 10:00N 37°36' E 010°24'1414.3
2017-Sep-18 09:00N 37°36' E 010°42'1515.5
2017-Sep-18 08:00N 37°30' E 011°00'10 9.5
2017-Sep-18 07:00N 37°30' E 011°12'1111.3
2017-Sep-18 06:00N 37°24' E 011°24'1918.7
2017-Sep-18 05:00N 37°12' E 011°42'1111.3
2017-Sep-18 04:00N 37°06' E 011°54'1615.6
2017-Sep-18 03:00N 37°00' E 012°12'1111.3
2017-Sep-18 02:00N 36°54' E 012°24'1111.3
2017-Sep-18 01:00N 36°48' E 012°36'1111.3
2017-Sep-18 00:00N 36°42' E 012°48'1414.4
2017-Sep-17 23:00N 36°42' E 013°06'1615.6
2017-Sep-17 22:00N 36°36' E 013°24'10 9.6
2017-Sep-17 21:00N 36°36' E 013°36'1615.7
2017-Sep-17 20:00N 36°30' E 013°54'10 9.6
2017-Sep-17 19:00N 36°30' E 014°06'1111.4
2017-Sep-17 18:00N 36°24' E 014°18'1414.5
2017-Sep-17 17:00N 36°24' E 014°36'10 9.7
2017-Sep-17 16:00N 36°24' E 014°48'1615.7
2017-Sep-17 15:00N 36°18' E 015°06'1514.5
2017-Sep-17 14:00N 36°18' E 015°24'10 9.7
2017-Sep-17 13:00N 36°18' E 015°36'1514.5
2017-Sep-17 12:00N 36°18' E 015°54'  
Track history (hours):
 
Tides and Currents Weather Stations Pressure Air Temp Water Temp Dewpoint Dewpoint Depression Visibility Wind Speed Wind Dir Waves Ship Positions

Callsign BAREU72 (name unknown)

Last reported at 2017-Sep-27 12:00 UTC. Time now 2017-Nov-20 06:09 UTC.
Position N 36°18' E 022°24'.
Warning: this ship's position is 53 days out of date.

Date/timePositionNaut miles runAvg speedWind from/ knotsBaromVisibWave heightAir tempDewpointWater temp
2017-Sep-27 12:00N 36°18' E 022°24'1514.5
2017-Sep-27 11:00N 36°18' E 022°06'1514.5
2017-Sep-27 10:00N 36°18' E 021°48'1514.5
2017-Sep-27 09:00N 36°18' E 021°30'10 9.7
2017-Sep-27 08:00N 36°18' E 021°18'1514.5
2017-Sep-27 07:00N 36°18' E 021°00'1514.5
2017-Sep-27 06:00N 36°18' E 020°42'1514.5
2017-Sep-27 05:00N 36°18' E 020°24'1514.5
2017-Sep-27 04:00N 36°18' E 020°06'10 9.7
2017-Sep-27 03:00N 36°18' E 019°54'1514.5
2017-Sep-27 02:00N 36°18' E 019°36'1514.5
2017-Sep-27 01:00N 36°18' E 019°18'1514.5
2017-Sep-27 00:00N 36°18' E 019°00'1514.5
2017-Sep-26 23:00N 36°18' E 018°42'10 9.7
2017-Sep-26 22:00N 36°18' E 018°30'1514.5
2017-Sep-26 21:00N 36°18' E 018°12'1514.5
2017-Sep-26 20:00N 36°18' E 017°54'1514.5
2017-Sep-26 19:00N 36°18' E 017°36'1514.5
2017-Sep-26 18:00N 36°18' E 017°18'10 9.7
2017-Sep-26 17:00N 36°18' E 017°06'1514.5
2017-Sep-26 16:00N 36°18' E 016°48'1514.5
2017-Sep-26 15:00N 36°18' E 016°30'1514.5
2017-Sep-26 14:00N 36°18' E 016°12'10 9.7
2017-Sep-26 13:00N 36°18' E 016°00'1514.5
2017-Sep-26 12:00N 36°18' E 015°42'1514.5
2017-Sep-26 11:00N 36°18' E 015°24'10 9.7
2017-Sep-26 10:00N 36°18' E 015°12'1514.5
2017-Sep-26 09:00N 36°18' E 014°54'1514.5
2017-Sep-26 08:00N 36°18' E 014°36'1615.7
2017-Sep-26 07:00N 36°12' E 014°18'10 9.7
2017-Sep-26 06:00N 36°12' E 014°06'1514.5
2017-Sep-26 05:00N 36°12' E 013°48'1514.5
2017-Sep-26 04:00N 36°12' E 013°30'1615.7
2017-Sep-26 03:00N 36°06' E 013°12'10 9.7
2017-Sep-26 02:00N 36°06' E 013°00'1514.5
2017-Sep-26 01:00N 36°06' E 012°42'1615.7
2017-Sep-26 00:00N 36°00' E 012°24'1514.6
2017-Sep-25 23:00N 36°00' E 012°06'1514.6
2017-Sep-25 22:00N 36°00' E 011°48'1514.6
2017-Sep-25 21:00N 36°00' E 011°30'1111.4
2017-Sep-25 20:00N 35°54' E 011°18'1514.6
2017-Sep-25 19:00N 35°54' E 011°00'1615.8
2017-Sep-25 18:00N 35°48' E 010°42'0 0.0
2017-Sep-25 17:00N 35°48' E 010°42'0 0.0
2017-Sep-25 00:00N 35°48' E 010°42'0 0.0
2017-Sep-24 00:00N 35°48' E 010°42'0 0.0
2017-Sep-23 18:00N 35°48' E 010°42'0 0.0
2017-Sep-23 17:00N 35°48' E 010°42'8 1.0
2017-Sep-23 09:00N 35°54' E 010°48'1312.9
2017-Sep-23 08:00N 36°06' E 010°54'1515.4
2017-Sep-23 07:00N 36°18' E 011°06'8 7.7
2017-Sep-23 06:00N 36°24' E 011°12'1312.9
2017-Sep-23 05:00N 36°36' E 011°18'1312.9
2017-Sep-23 04:00N 36°48' E 011°24'1212.0
2017-Sep-23 03:00N 37°00' E 011°24'1212.0
2017-Sep-23 02:00N 37°12' E 011°24'1111.3
2017-Sep-23 01:00N 37°18' E 011°12'1111.3
2017-Sep-23 00:00N 37°24' E 011°00'1515.5
2017-Sep-22 23:00N 37°30' E 010°42'10 9.5
2017-Sep-22 22:00N 37°30' E 010°30'1414.3
2017-Sep-22 21:00N 37°30' E 010°12'1111.3
2017-Sep-22 20:00N 37°24' E 010°00'8 0.4
2017-Sep-21 23:00N 37°18' E 009°54'0 0.0
2017-Sep-21 14:00N 37°18' E 009°54'0 0.0
2017-Sep-21 05:00N 37°18' E 009°54'5 2.4
2017-Sep-21 03:00N 37°18' E 010°00'0 0.0
2017-Sep-21 02:00N 37°18' E 010°00'0 0.0
2017-Sep-21 01:00N 37°18' E 010°00'0 0.0
2017-Sep-21 00:00N 37°18' E 010°00'0 0.0
2017-Sep-20 23:00N 37°18' E 010°00'8 3.8
2017-Sep-20 21:00N 37°24' E 009°54'1414.3
2017-Sep-20 20:00N 37°24' E 009°36'1615.5
2017-Sep-20 19:00N 37°18' E 009°18'1414.3
2017-Sep-20 18:00N 37°18' E 009°00'1111.3
2017-Sep-20 17:00N 37°12' E 008°48'1615.6
2017-Sep-20 16:00N 37°06' E 008°30'1111.3
2017-Sep-20 15:00N 37°00' E 008°18'1414.4
2017-Sep-20 14:00N 37°00' E 008°00'1111.3
2017-Sep-20 13:00N 36°54' E 007°48'0 0.0
2017-Sep-20 12:00N 36°54' E 007°48'0 0.0
2017-Sep-20 08:00N 36°54' E 007°48'0 0.0
2017-Sep-19 23:00N 36°54' E 007°48'5 0.2
2017-Sep-18 20:00N 36°54' E 007°54'1111.3
2017-Sep-18 19:00N 37°00' E 008°06'1615.6
2017-Sep-18 18:00N 37°06' E 008°24'1111.3
2017-Sep-18 17:00N 37°12' E 008°36'1615.5
2017-Sep-18 16:00N 37°18' E 008°54'1111.3
2017-Sep-18 15:00N 37°24' E 009°06'1414.3
2017-Sep-18 14:00N 37°24' E 009°24'1515.5
2017-Sep-18 13:00N 37°30' E 009°42'1111.2
2017-Sep-18 12:00N 37°36' E 009°54'1414.3
2017-Sep-18 11:00N 37°36' E 010°12'10 9.5
2017-Sep-18 10:00N 37°36' E 010°24'1414.3
2017-Sep-18 09:00N 37°36' E 010°42'1515.5
2017-Sep-18 08:00N 37°30' E 011°00'10 9.5
2017-Sep-18 07:00N 37°30' E 011°12'1111.3
2017-Sep-18 06:00N 37°24' E 011°24'1918.7
2017-Sep-18 05:00N 37°12' E 011°42'1111.3
2017-Sep-18 04:00N 37°06' E 011°54'1615.6
2017-Sep-18 03:00N 37°00' E 012°12'1111.3
2017-Sep-18 02:00N 36°54' E 012°24'1111.3
2017-Sep-18 01:00N 36°48' E 012°36'1111.3
2017-Sep-18 00:00N 36°42' E 012°48'1414.4
2017-Sep-17 23:00N 36°42' E 013°06'1615.6
2017-Sep-17 22:00N 36°36' E 013°24'10 9.6
2017-Sep-17 21:00N 36°36' E 013°36'1615.7
2017-Sep-17 20:00N 36°30' E 013°54'10 9.6
2017-Sep-17 19:00N 36°30' E 014°06'1111.4
2017-Sep-17 18:00N 36°24' E 014°18'1414.5
2017-Sep-17 17:00N 36°24' E 014°36'10 9.7
2017-Sep-17 16:00N 36°24' E 014°48'1615.7
2017-Sep-17 15:00N 36°18' E 015°06'1514.5
2017-Sep-17 14:00N 36°18' E 015°24'10 9.7
2017-Sep-17 13:00N 36°18' E 015°36'1514.5
2017-Sep-17 12:00N 36°18' E 015°54'  

Dump ship's entire track history